Terminal Aerodrome Forecast
Issued by NWS

Home | Current Version | Previous Version | Text Only | Print | Product List | Glossary On
Versions: 1 2 3 4 5 6 7 8 9 10 11 12 13 14 15 16 17 18 19 20 21 22 23 24 25 26 27 28 29
000
FTUS46 KMFR 031139
TAFOTH
TAF
KOTH 031139Z 0312/0412 15005KT P6SM SCT025
     FM031800 32010KT P6SM FEW035
     FM032200 33014G20KT P6SM FEW035
     FM040400 35006KT P6SM FEW015 SCT040=

USA.gov is the U.S. government's official web portal to all federal, state and local government web resources and services.